Allen, Oklahoma
Current Conditions -  °F | °C
As of 6:15 PM on Friday 19 Dec 2014 (Local Time) from KADH Reporting Station
Haze Haze  
Wind Chill: 41°   Ceiling: 700
Heat Index: 41°   Visibility: 5mi
Dew Point: 41°   Wind: 3mph
Humidity: 100%   Direction: 20°NNE
Pressure: 30.19"   Gusts: NA
Location:  34.88°N, 96.41°W
Report Text: KADH 200015Z AUTO 02003KT 5SM BR OVC007 05/05 A3019 RMK AO2
Loading
Personal Weather Stations






























Interactive Weather Map New forecast layout! Learn more

10-Day Weather Forecast

Advertisements
Track Severe Weather on mobile